Time;durP1;ratioP1;P1;durP2;ratioP2;P2;SDS_P1;SDS_P2;PMS_P1;PMS_P2;Temp;Humidity;BMP_temperature;BMP_pressure;BME280_temperature;BME280_humidity;BME280_pressure;Samples;Min_cycle;Max_cycle;Signal;HPM_P1;HPM_P2
2021/07/29 00:00:07;;;;;;;6.27;4.10;;;20.80;99.90;;;;;;5089763;28;20392;-81
2021/07/29 00:02:35;;;;;;;4.97;3.50;;;20.80;99.90;;;;;;5096894;28;20443;-82
2021/07/29 00:05:04;;;;;;;5.97;4.93;;;20.70;99.90;;;;;;5096655;28;20404;-81
2021/07/29 00:07:32;;;;;;;7.97;4.70;;;20.60;99.90;;;;;;5096698;28;20385;-81
2021/07/29 00:10:02;;;;;;;4.97;4.20;;;20.60;99.90;;;;;;5082248;28;20897;-85
2021/07/29 00:12:31;;;;;;;5.57;4.83;;;20.60;99.90;;;;;;5081822;28;20458;-87
2021/07/29 00:14:59;;;;;;;5.13;4.60;;;20.60;99.90;;;;;;5083854;28;20410;-84
2021/07/29 00:19:01;;;;;;;4.70;4.00;;;20.60;99.90;;;;;;5081335;28;20477;-84
2021/07/29 00:20:20;;;;;;;4.83;4.33;;;20.60;99.90;;;;;;5079867;28;20952;-87
2021/07/29 00:22:50;;;;;;;5.07;4.40;;;20.40;99.90;;;;;;5081302;28;20417;-84
2021/07/29 00:25:20;;;;;;;5.17;4.50;;;20.40;99.90;;;;;;5080863;28;20390;-85
2021/07/29 00:27:49;;;;;;;6.80;5.50;;;20.30;99.90;;;;;;5081909;28;20886;-86
2021/07/29 00:30:22;;;;;;;4.97;4.43;;;20.30;99.90;;;;;;5079643;28;20941;-85
2021/07/29 00:32:52;;;;;;;6.00;4.80;;;20.20;99.90;;;;;;5076520;28;20425;-83
2021/07/29 00:35:20;;;;;;;7.47;5.20;;;20.10;99.90;;;;;;5076314;28;20471;-84
2021/07/29 00:37:52;;;;;;;5.30;4.50;;;20.20;99.90;;;;;;5077576;28;20432;-84
2021/07/29 00:40:22;;;;;;;7.97;5.13;;;20.10;99.90;;;;;;5081217;28;20419;-84
2021/07/29 00:42:50;;;;;;;5.07;4.57;;;20.10;99.90;;;;;;5081125;28;20500;-82
2021/07/29 00:45:19;;;;;;;6.53;4.60;;;20.00;99.90;;;;;;5080870;28;20381;-86
2021/07/29 00:47:47;;;;;;;4.70;4.20;;;20.00;99.90;;;;;;5078903;28;20753;-86
2021/07/29 00:50:35;;;;;;;5.30;4.43;;;20.00;99.90;;;;;;5077504;28;20445;-83
2021/07/29 00:53:05;;;;;;;4.13;3.70;;;19.90;99.90;;;;;;5079617;28;20408;-84
2021/07/29 00:55:54;;;;;;;5.27;4.77;;;19.80;99.90;;;;;;5078911;28;20397;-84
2021/07/29 00:58:22;;;;;;;5.40;4.87;;;19.80;99.90;;;;;;5092028;28;20437;-83
2021/07/29 01:00:52;;;;;;;5.97;4.60;;;19.70;99.90;;;;;;5096713;28;20401;-86
2021/07/29 01:03:21;;;;;;;4.50;4.03;;;19.70;99.90;;;;;;5086883;28;20404;-86
2021/07/29 01:05:49;;;;;;;4.63;4.23;;;19.80;99.90;;;;;;5081739;28;20408;-85
2021/07/29 01:08:18;;;;;;;8.27;5.27;;;19.80;99.90;;;;;;5083854;28;20418;-85
2021/07/29 01:10:46;;;;;;;5.10;4.60;;;19.80;99.90;;;;;;5091159;28;20405;-85
2021/07/29 01:13:16;;;;;;;4.50;3.60;;;19.80;99.90;;;;;;5082633;28;20405;-86
2021/07/29 01:15:44;;;;;;;5.03;4.53;;;19.70;99.90;;;;;;5081941;28;20464;-86
2021/07/29 01:18:12;;;;;;;5.87;4.17;;;19.70;99.90;;;;;;5083344;28;20467;-86
2021/07/29 01:20:42;;;;;;;5.73;4.00;;;19.70;99.90;;;;;;5082474;28;20761;-85
2021/07/29 01:23:10;;;;;;;6.00;4.20;;;19.60;99.90;;;;;;5083268;28;20404;-85
2021/07/29 01:25:38;;;;;;;6.73;4.93;;;19.60;99.90;;;;;;5084653;28;20422;-86
2021/07/29 01:28:06;;;;;;;6.17;3.90;;;19.60;99.90;;;;;;5080281;28;20401;-87
2021/07/29 01:30:34;;;;;;;6.00;4.53;;;19.70;99.90;;;;;;5079280;28;20434;-87
2021/07/29 01:33:04;;;;;;;5.60;4.67;;;19.70;99.90;;;;;;5081160;28;20801;-85
2021/07/29 01:35:37;;;;;;;5.10;4.30;;;19.70;99.90;;;;;;5084653;28;20404;-80
2021/07/29 01:38:14;;;;;;;4.50;4.10;;;19.80;99.90;;;;;;5098985;28;20485;-80
2021/07/29 01:40:42;;;;;;;5.93;5.30;;;19.80;99.90;;;;;;5099229;28;20409;-81
2021/07/29 01:43:10;;;;;;;5.83;3.57;;;19.70;99.90;;;;;;5099204;28;20389;-80
2021/07/29 01:45:38;;;;;;;5.70;4.20;;;19.60;99.90;;;;;;5096926;28;20442;-83
2021/07/29 01:48:06;;;;;;;5.13;4.47;;;19.50;99.90;;;;;;5082863;28;20423;-85
2021/07/29 01:50:34;;;;;;;5.10;3.40;;;19.40;99.90;;;;;;5092813;28;20427;-81
2021/07/29 01:53:02;;;;;;;6.60;4.57;;;19.40;99.90;;;;;;5096136;28;20397;-81
2021/07/29 01:55:32;;;;;;;4.77;4.00;;;19.30;99.90;;;;;;5097143;28;20424;-80
2021/07/29 01:58:00;;;;;;;4.77;4.33;;;19.30;99.90;;;;;;5095787;28;20444;-82
2021/07/29 02:00:28;;;;;;;4.43;3.83;;;19.20;99.90;;;;;;5096704;28;20426;-82
2021/07/29 02:02:56;;;;;;;8.03;4.70;;;19.10;99.90;;;;;;5096355;28;20428;-82
2021/07/29 02:05:24;;;;;;;4.00;3.60;;;18.90;99.90;;;;;;5089200;28;20405;-86
2021/07/29 02:07:52;;;;;;;5.47;4.97;;;18.90;99.90;;;;;;5079483;28;20522;-87
2021/07/29 02:10:21;;;;;;;6.50;5.27;;;18.80;99.90;;;;;;5079679;28;20405;-86
2021/07/29 02:12:51;;;;;;;4.70;4.27;;;18.70;99.90;;;;;;5082064;28;20461;-87
2021/07/29 02:15:19;;;;;;;4.60;4.03;;;18.80;99.90;;;;;;5081725;28;20495;-87
2021/07/29 02:17:47;;;;;;;6.97;6.03;;;18.70;99.90;;;;;;5087694;28;20800;-86
2021/07/29 02:20:16;;;;;;;5.30;4.50;;;18.50;99.90;;;;;;5080911;28;20797;-87
2021/07/29 02:22:44;;;;;;;4.97;3.70;;;18.50;99.90;;;;;;5080951;28;20573;-85
2021/07/29 02:25:12;;;;;;;3.87;3.47;;;18.50;99.90;;;;;;5083267;28;20586;-82
2021/07/29 02:27:40;;;;;;;4.10;3.57;;;18.40;99.90;;;;;;5082302;28;20504;-83
2021/07/29 02:30:11;;;;;;;5.27;4.50;;;18.30;99.90;;;;;;5078159;28;20391;-81
2021/07/29 02:32:40;;;;;;;4.50;3.50;;;18.40;99.90;;;;;;5078293;28;20556;-87
2021/07/29 02:35:09;;;;;;;6.07;4.63;;;18.50;99.90;;;;;;5078591;28;20834;-84
2021/07/29 02:37:37;;;;;;;5.23;3.83;;;18.40;99.90;;;;;;5077888;28;20419;-87
2021/07/29 02:40:07;;;;;;;4.47;3.93;;;18.30;99.90;;;;;;5077651;28;20429;-85
2021/07/29 02:42:35;;;;;;;6.70;4.73;;;18.20;99.90;;;;;;5077436;28;20420;-84
2021/07/29 02:45:03;;;;;;;3.90;3.50;;;18.20;99.90;;;;;;5078078;28;20422;-84
2021/07/29 02:47:32;;;;;;;4.27;3.70;;;18.20;99.90;;;;;;5077358;28;20457;-84
2021/07/29 02:50:01;;;;;;;5.00;4.03;;;18.20;99.90;;;;;;5080046;28;20385;-86
2021/07/29 02:52:29;;;;;;;5.70;4.80;;;18.20;99.90;;;;;;5083546;28;20439;-84
2021/07/29 02:54:57;;;;;;;5.87;4.60;;;18.10;99.90;;;;;;5091948;28;20461;-81
2021/07/29 02:57:25;;;;;;;6.10;4.60;;;18.30;99.90;;;;;;5097047;28;20389;-83
2021/07/29 02:59:55;;;;;;;5.53;4.87;;;18.20;99.90;;;;;;5096693;28;20448;-86
2021/07/29 03:02:23;;;;;;;5.23;4.73;;;18.20;99.90;;;;;;5085058;28;20536;-86
2021/07/29 03:04:53;;;;;;;4.57;3.00;;;18.20;99.90;;;;;;5083231;28;20396;-86
2021/07/29 03:07:21;;;;;;;4.60;3.70;;;18.20;99.90;;;;;;5080498;28;20407;-86
2021/07/29 03:09:49;;;;;;;4.93;4.53;;;18.10;99.90;;;;;;5080145;28;20401;-86
2021/07/29 03:12:17;;;;;;;5.13;3.93;;;18.10;99.90;;;;;;5082626;28;21070;-86
2021/07/29 03:14:46;;;;;;;5.43;4.40;;;18.10;99.90;;;;;;5080161;28;20988;-87
2021/07/29 03:17:14;;;;;;;4.97;4.30;;;18.10;99.90;;;;;;5079900;28;20396;-86
2021/07/29 03:19:42;;;;;;;4.30;3.70;;;18.30;99.90;;;;;;5078778;28;20440;-87
2021/07/29 03:22:12;;;;;;;5.00;4.00;;;18.30;99.90;;;;;;5079760;28;20459;-85
2021/07/29 03:24:40;;;;;;;3.90;3.13;;;18.30;99.90;;;;;;5083903;28;20393;-85
2021/07/29 03:27:08;;;;;;;8.33;5.00;;;18.30;99.90;;;;;;5079791;28;20404;-87
2021/07/29 03:29:37;;;;;;;6.37;4.00;;;18.20;99.90;;;;;;5079096;28;20412;-87
2021/07/29 03:32:06;;;;;;;3.73;3.13;;;18.40;99.90;;;;;;5080247;28;20447;-87
2021/07/29 03:34:34;;;;;;;5.03;4.47;;;18.30;99.90;;;;;;5079117;28;20413;-83
2021/07/29 03:37:02;;;;;;;7.77;3.83;;;18.40;99.90;;;;;;5088435;28;20423;-87
2021/07/29 03:39:32;;;;;;;6.00;4.73;;;18.50;99.90;;;;;;5079732;28;20424;-85
2021/07/29 03:42:00;;;;;;;5.43;4.83;;;18.50;99.90;;;;;;5079327;28;20442;-87
2021/07/29 03:44:28;;;;;;;7.93;4.50;;;18.50;99.90;;;;;;5079566;28;20405;-87
2021/07/29 03:46:56;;;;;;;3.20;2.90;;;18.90;99.90;;;;;;5078958;28;20417;-87
2021/07/29 03:49:24;;;;;;;4.57;3.37;;;19.40;99.90;;;;;;5086111;28;20452;-82
2021/07/29 03:51:52;;;;;;;5.00;3.27;;;19.60;99.90;;;;;;5096190;28;20489;-83
2021/07/29 03:54:20;;;;;;;4.63;3.50;;;19.80;99.90;;;;;;5095859;28;20486;-85
2021/07/29 03:56:49;;;;;;;4.80;3.97;;;20.30;99.90;;;;;;5095122;28;20687;-87
2021/07/29 03:59:17;;;;;;;3.47;3.17;;;20.90;99.90;;;;;;5086320;28;20497;-86
2021/07/29 04:01:46;;;;;;;3.93;2.90;;;21.50;99.90;;;;;;5083229;28;20473;-86
2021/07/29 04:04:14;;;;;;;3.93;3.53;;;22.10;99.90;;;;;;5079829;28;20978;-87
2021/07/29 04:06:42;;;;;;;4.67;3.33;;;22.60;99.90;;;;;;5078920;28;20397;-85
2021/07/29 04:09:11;;;;;;;4.37;3.20;;;23.00;99.90;;;;;;5082330;28;20439;-85
2021/07/29 04:11:39;;;;;;;3.53;3.07;;;23.50;99.90;;;;;;5081801;28;20465;-84
2021/07/29 04:14:08;;;;;;;4.60;3.20;;;24.10;99.90;;;;;;5079118;28;20427;-84
2021/07/29 04:16:37;;;;;;;3.70;3.40;;;24.50;99.90;;;;;;5087902;28;20530;-83
2021/07/29 04:19:05;;;;;;;3.97;3.30;;;24.80;99.90;;;;;;5082395;28;20414;-84
2021/07/29 04:21:33;;;;;;;6.50;3.50;;;25.00;99.90;;;;;;5080611;28;20449;-85
2021/07/29 04:24:01;;;;;;;4.73;3.30;;;25.30;99.90;;;;;;5080956;28;20432;-83
2021/07/29 04:26:29;;;;;;;4.40;3.40;;;25.80;99.90;;;;;;5080387;28;20423;-86
2021/07/29 04:28:57;;;;;;;2.87;2.53;;;25.40;99.90;;;;;;5080522;28;20429;-84
2021/07/29 04:31:27;;;;;;;4.33;3.00;;;24.30;99.90;;;;;;5087067;28;20454;-83
2021/07/29 04:33:55;;;;;;;5.13;3.83;;;23.10;99.90;;;;;;5099238;28;20444;-81
2021/07/29 04:36:23;;;;;;;3.57;3.10;;;22.40;99.90;;;;;;5086729;28;20597;-87
2021/07/29 04:38:51;;;;;;;3.70;3.40;;;21.50;99.90;;;;;;5089042;28;20392;-87
2021/07/29 04:41:19;;;;;;;5.00;3.53;;;20.90;99.90;;;;;;5091455;28;20543;-84
2021/07/29 04:43:47;;;;;;;4.17;3.63;;;20.40;99.90;;;;;;5094932;28;20437;-85
2021/07/29 04:46:15;;;;;;;4.60;3.87;;;20.10;99.90;;;;;;5091742;28;20434;-85
2021/07/29 04:48:44;;;;;;;4.07;3.07;;;19.90;99.90;;;;;;5086951;28;20477;-86
2021/07/29 04:51:13;;;;;;;4.50;3.70;;;20.30;99.90;;;;;;5070576;28;20417;-87
2021/07/29 04:53:41;;;;;;;4.70;3.70;;;20.50;99.90;;;;;;5065144;28;20415;-84
2021/07/29 04:56:09;;;;;;;4.20;3.27;;;21.20;99.90;;;;;;5077975;28;20416;-81
2021/07/29 04:58:37;;;;;;;3.57;3.27;;;22.90;99.90;;;;;;5076427;28;20426;-87
2021/07/29 05:01:05;;;;;;;5.43;3.57;;;24.00;99.90;;;;;;5087755;28;20566;-86
2021/07/29 05:03:33;;;;;;;3.40;3.10;;;25.00;99.90;;;;;;5080946;28;20413;-87
2021/07/29 05:06:03;;;;;;;4.73;3.40;;;25.80;99.90;;;;;;5082853;28;21014;-85
2021/07/29 05:08:31;;;;;;;4.47;3.57;;;26.30;99.90;;;;;;5081822;28;20513;-87
2021/07/29 05:13:41;;;;;;;11.80;3.93;;;26.90;99.90;;;;;;4998618;28;20440;-71
2021/07/29 05:16:09;;;;;;;4.60;3.77;;;27.80;99.90;;;;;;4996719;28;20484;-72
2021/07/29 05:18:37;;;;;;;3.47;3.17;;;27.90;99.90;;;;;;4998693;28;20433;-72
2021/07/29 05:21:09;;;;;;;5.57;2.87;;;27.90;99.90;;;;;;4999478;28;20491;-71
2021/07/29 05:23:37;;;;;;;3.37;2.77;;;28.70;99.90;;;;;;4998280;28;20430;-71
2021/07/29 05:26:05;;;;;;;4.17;3.20;;;29.00;99.90;;;;;;4997013;28;20981;-71
2021/07/29 05:28:33;;;;;;;5.37;3.67;;;28.90;99.90;;;;;;4998107;28;20560;-71
2021/07/29 05:31:02;;;;;;;3.07;2.80;;;29.30;99.90;;;;;;4999546;28;20481;-72
2021/07/29 05:33:31;;;;;;;3.57;2.80;;;29.20;99.90;;;;;;4994553;28;20421;-71
2021/07/29 05:36:01;;;;;;;4.40;3.43;;;27.70;99.90;;;;;;4992567;28;20437;-70
2021/07/29 05:38:30;;;;;;;3.80;3.17;;;25.70;99.90;;;;;;4992457;28;20449;-70
2021/07/29 05:40:59;;;;;;;5.13;4.20;;;24.00;99.90;;;;;;4998710;28;20518;-71
2021/07/29 05:43:27;;;;;;;4.43;4.03;;;22.70;99.90;;;;;;5005213;28;20875;-71
2021/07/29 05:45:55;;;;;;;3.97;3.57;;;21.90;99.90;;;;;;4992178;28;20441;-71
2021/07/29 05:48:24;;;;;;;4.60;3.60;;;21.40;99.90;;;;;;4996173;28;20404;-71
2021/07/29 05:50:56;;;;;;;3.80;3.27;;;21.10;99.90;;;;;;5011400;28;20571;-70
2021/07/29 05:53:25;;;;;;;4.10;3.20;;;20.70;99.90;;;;;;5010037;28;20423;-70
2021/07/29 05:55:55;;;;;;;3.43;3.13;;;20.70;99.90;;;;;;5008166;28;20408;-71
2021/07/29 05:58:23;;;;;;;6.63;3.50;;;20.80;99.90;;;;;;5011664;28;20432;-71
2021/07/29 06:00:52;;;;;;;4.60;3.47;;;20.80;99.90;;;;;;5006516;28;20955;-70
2021/07/29 06:03:22;;;;;;;4.07;2.93;;;20.80;99.90;;;;;;5001761;28;20826;-71
2021/07/29 06:05:51;;;;;;;4.33;2.70;;;20.70;99.90;;;;;;5010219;28;20764;-70
2021/07/29 06:08:19;;;;;;;4.40;3.40;;;20.80;99.90;;;;;;5010547;28;20422;-72
2021/07/29 06:10:47;;;;;;;4.70;3.10;;;20.80;99.90;;;;;;5010584;28;20420;-70
2021/07/29 06:13:17;;;;;;;4.80;2.97;;;20.80;99.90;;;;;;5006991;28;20412;-72
2021/07/29 06:15:45;;;;;;;4.43;3.30;;;20.80;99.90;;;;;;5009637;28;20827;-74
2021/07/29 06:18:13;;;;;;;5.30;4.00;;;20.80;99.90;;;;;;5010852;28;20407;-71
2021/07/29 06:20:42;;;;;;;6.90;3.13;;;21.00;99.90;;;;;;5011317;28;20436;-71
2021/07/29 06:23:10;;;;;;;5.47;3.87;;;21.00;99.90;;;;;;5010989;28;20512;-71
2021/07/29 06:25:41;;;;;;;2.90;2.50;;;20.90;99.90;;;;;;5011119;28;20399;-71
2021/07/29 06:28:12;;;;;;;4.10;2.63;;;21.10;99.90;;;;;;5010781;28;20400;-71
2021/07/29 06:30:44;;;;;;;4.27;3.03;;;21.00;99.90;;;;;;5010754;28;20428;-72
2021/07/29 06:33:12;;;;;;;7.03;3.30;;;21.20;99.90;;;;;;5011007;28;20919;-71
2021/07/29 06:35:40;;;;;;;5.70;2.93;;;21.30;99.90;;;;;;5010568;28;20809;-71
2021/07/29 06:38:09;;;;;;;8.90;4.00;;;21.40;99.90;;;;;;5010403;28;20494;-71
2021/07/29 06:40:37;;;;;;;6.47;3.33;;;21.60;99.90;;;;;;5010514;28;20446;-70
2021/07/29 06:43:05;;;;;;;5.50;2.67;;;21.80;99.90;;;;;;5010765;28;20391;-71
2021/07/29 06:45:33;;;;;;;3.30;3.00;;;21.90;99.90;;;;;;5010636;28;20812;-71
2021/07/29 06:48:03;;;;;;;4.23;3.20;;;21.90;99.90;;;;;;5009217;28;20400;-71
2021/07/29 06:50:31;;;;;;;3.63;2.70;;;22.00;99.90;;;;;;5008229;28;20515;-70
2021/07/29 06:52:59;;;;;;;4.40;3.03;;;22.00;99.90;;;;;;5011340;28;20887;-69
2021/07/29 06:55:29;;;;;;;2.67;2.27;;;21.90;99.90;;;;;;5010949;28;20400;-70
2021/07/29 06:57:57;;;;;;;5.07;2.87;;;21.90;99.90;;;;;;5011325;28;20392;-70
2021/07/29 07:00:25;;;;;;;3.73;2.57;;;21.90;99.90;;;;;;5010971;28;20419;-70
2021/07/29 07:02:53;;;;;;;2.60;2.40;;;21.70;99.90;;;;;;5010988;28;20469;-71
2021/07/29 07:05:23;;;;;;;4.93;2.57;;;21.80;99.90;;;;;;5010858;28;20491;-70
2021/07/29 07:07:51;;;;;;;5.60;2.60;;;21.80;99.90;;;;;;5011268;28;20429;-70
2021/07/29 07:10:19;;;;;;;2.33;2.13;;;22.00;99.90;;;;;;5010633;28;20441;-70
2021/07/29 07:12:48;;;;;;;3.93;3.20;;;22.20;99.90;;;;;;5011056;28;20532;-69
2021/07/29 07:15:16;;;;;;;4.07;2.97;;;22.40;99.90;;;;;;5010572;28;20429;-69
2021/07/29 07:17:45;;;;;;;4.07;2.80;;;22.50;99.90;;;;;;5010638;28;20981;-69
2021/07/29 07:20:13;;;;;;;4.03;2.70;;;22.50;99.90;;;;;;5010828;28;20415;-69
2021/07/29 07:22:42;;;;;;;3.00;2.63;;;22.50;99.90;;;;;;5010860;28;20435;-69
2021/07/29 07:25:10;;;;;;;3.30;2.70;;;22.60;99.90;;;;;;5010663;28;20456;-70
2021/07/29 07:27:39;;;;;;;3.00;2.40;;;22.50;99.90;;;;;;5009561;28;20436;-70
2021/07/29 07:30:08;;;;;;;2.27;1.83;;;22.40;99.90;;;;;;5010420;28;20447;-69
2021/07/29 07:32:36;;;;;;;4.03;2.27;;;22.50;99.90;;;;;;5010924;28;20396;-71
2021/07/29 07:35:05;;;;;;;4.23;3.00;;;22.50;99.90;;;;;;5010030;28;20425;-70
2021/07/29 07:37:34;;;;;;;2.60;2.40;;;22.60;99.90;;;;;;5010759;28;20404;-72
2021/07/29 07:40:04;;;;;;;3.37;2.23;;;22.70;99.90;;;;;;5010417;28;20436;-70
2021/07/29 07:42:32;;;;;;;3.13;2.67;;;22.90;99.90;;;;;;5010895;28;20464;-70
2021/07/29 07:45:01;;;;;;;3.80;3.10;;;22.70;99.90;;;;;;5010694;28;20433;-70
2021/07/29 07:47:29;;;;;;;2.73;2.10;;;22.60;99.90;;;;;;5011560;28;20421;-71
2021/07/29 07:49:58;;;;;;;3.50;2.47;;;22.70;99.90;;;;;;5015036;28;20867;-71
2021/07/29 07:52:26;;;;;;;2.67;2.47;;;22.70;99.90;;;;;;5015667;28;20805;-72
2021/07/29 07:54:55;;;;;;;4.27;2.90;;;22.80;99.90;;;;;;5014872;28;20928;-69
2021/07/29 07:57:24;;;;;;;4.87;2.47;;;23.10;99.90;;;;;;5015200;28;20425;-69
2021/07/29 07:59:58;;;;;;;3.00;2.43;;;23.20;99.90;;;;;;5014672;28;20962;-70
2021/07/29 08:02:26;;;;;;;3.00;2.03;;;23.30;99.90;;;;;;5014942;28;20464;-69
2021/07/29 08:04:55;;;;;;;5.10;2.70;;;23.20;99.90;;;;;;5014434;28;20641;-73
2021/07/29 08:07:23;;;;;;;3.40;2.70;;;23.20;99.90;;;;;;5014665;28;20436;-69
2021/07/29 08:09:51;;;;;;;6.67;3.50;;;23.30;99.90;;;;;;5014220;28;20460;-69
2021/07/29 08:12:21;;;;;;;3.40;2.70;;;23.70;99.90;;;;;;5014644;28;20429;-70
2021/07/29 08:14:50;;;;;;;3.20;2.80;;;23.90;99.90;;;;;;5014102;28;20950;-73
2021/07/29 08:17:19;;;;;;;3.07;2.77;;;24.50;99.90;;;;;;5013927;28;20435;-71
2021/07/29 08:19:47;;;;;;;6.50;3.30;;;24.70;99.90;;;;;;5014106;28;20392;-69
2021/07/29 08:22:15;;;;;;;3.60;3.10;;;24.80;99.90;;;;;;5014066;28;20461;-69
2021/07/29 08:24:43;;;;;;;5.30;2.67;;;24.80;99.90;;;;;;5013937;28;20421;-71
2021/07/29 08:27:15;;;;;;;6.97;2.80;;;24.30;99.90;;;;;;5012240;28;20498;-70
2021/07/29 08:29:43;;;;;;;2.80;2.37;;;23.90;99.90;;;;;;5014153;28;20425;-70
2021/07/29 08:32:12;;;;;;;3.00;2.60;;;23.70;99.90;;;;;;5013878;28;20419;-69
2021/07/29 08:34:40;;;;;;;3.33;2.50;;;23.80;99.90;;;;;;5014106;28;20421;-70
2021/07/29 08:37:09;;;;;;;5.73;2.63;;;24.00;99.90;;;;;;5013416;28;20437;-70
2021/07/29 08:39:37;;;;;;;3.37;3.10;;;23.80;99.90;;;;;;5013553;28;20416;-70
2021/07/29 08:42:06;;;;;;;5.80;3.37;;;23.20;99.90;;;;;;5013413;28;20601;-72
2021/07/29 08:44:35;;;;;;;3.47;2.70;;;23.10;99.90;;;;;;5014292;28;20417;-71
2021/07/29 08:47:09;;;;;;;3.77;2.50;;;23.30;99.90;;;;;;5013424;28;20551;-71
2021/07/29 08:50:02;;;;;;;3.00;2.70;;;23.60;99.90;;;;;;5014243;28;20395;-73
2021/07/29 08:52:33;;;;;;;2.73;2.40;;;23.30;99.90;;;;;;5014079;28;20395;-71
2021/07/29 08:55:02;;;;;;;3.90;2.80;;;23.40;99.90;;;;;;5013663;28;20417;-70
2021/07/29 08:57:32;;;;;;;4.70;3.10;;;23.60;99.90;;;;;;5013872;28;20408;-70
2021/07/29 09:00:02;;;;;;;2.83;2.33;;;23.80;99.90;;;;;;5013149;28;20421;-72
2021/07/29 09:02:30;;;;;;;4.53;4.10;;;23.90;99.90;;;;;;5013424;28;20868;-70
2021/07/29 09:05:12;;;;;;;3.07;2.77;;;23.80;99.90;;;;;;5013383;28;20898;-69
2021/07/29 09:07:40;;;;;;;3.23;2.90;;;23.50;99.90;;;;;;5013252;28;20407;-71
2021/07/29 09:10:26;;;;;;;4.27;2.97;;;23.50;99.90;;;;;;5013007;28;20452;-71
2021/07/29 09:13:10;;;;;;;4.13;3.73;;;23.60;99.90;;;;;;5013319;28;20440;-71
2021/07/29 09:15:40;;;;;;;4.47;2.27;;;23.70;99.90;;;;;;5011792;28;20849;-71
2021/07/29 09:18:08;;;;;;;4.23;2.70;;;23.70;99.90;;;;;;5012931;28;20431;-72
2021/07/29 09:20:38;;;;;;;3.30;2.77;;;23.50;99.90;;;;;;5011749;28;20491;-71
2021/07/29 09:23:14;;;;;;;3.47;3.17;;;23.40;99.90;;;;;;5014523;28;20497;-72
2021/07/29 09:25:43;;;;;;;4.47;2.60;;;23.20;99.90;;;;;;5019123;28;20453;-71
2021/07/29 09:28:12;;;;;;;4.00;3.60;;;22.90;99.90;;;;;;5019671;28;20436;-69
2021/07/29 09:30:40;;;;;;;4.73;3.03;;;22.90;99.90;;;;;;5018539;28;20443;-71
2021/07/29 09:33:12;;;;;;;4.53;3.07;;;22.90;99.90;;;;;;5020708;28;20415;-72
2021/07/29 09:35:44;;;;;;;2.70;2.50;;;22.80;99.90;;;;;;5019014;28;20433;-70
2021/07/29 09:38:21;;;;;;;3.10;2.60;;;22.70;99.90;;;;;;5012630;28;20425;-73
2021/07/29 09:40:54;;;;;;;3.53;2.47;;;22.80;99.90;;;;;;5013196;28;21038;-71
2021/07/29 09:43:24;;;;;;;3.30;2.93;;;22.90;99.90;;;;;;5012938;28;20464;-71
2021/07/29 09:45:55;;;;;;;4.70;2.90;;;22.70;99.90;;;;;;5013446;28;20421;-69
2021/07/29 09:48:24;;;;;;;4.23;2.87;;;22.60;99.90;;;;;;5014242;28;20949;-71
2021/07/29 09:50:56;;;;;;;4.00;3.10;;;22.60;99.90;;;;;;5016470;28;20544;-72
2021/07/29 09:53:24;;;;;;;7.10;2.93;;;22.40;99.90;;;;;;5017686;28;20425;-70
2021/07/29 09:55:53;;;;;;;5.97;2.67;;;22.30;99.90;;;;;;5016852;28;20421;-70
2021/07/29 09:58:21;;;;;;;4.87;3.90;;;22.40;99.90;;;;;;5017698;28;20436;-72
2021/07/29 10:00:49;;;;;;;4.10;2.47;;;22.50;99.90;;;;;;5016589;28;20443;-72
2021/07/29 10:03:22;;;;;;;3.13;2.73;;;22.70;99.90;;;;;;5014782;28;20443;-69
2021/07/29 10:05:57;;;;;;;4.90;2.90;;;22.60;99.90;;;;;;5012329;28;20407;-72
2021/07/29 10:08:31;;;;;;;2.83;2.60;;;22.70;99.90;;;;;;5012036;28;20428;-72
2021/07/29 10:11:00;;;;;;;3.90;2.90;;;23.00;99.90;;;;;;5011401;28;21057;-70
2021/07/29 10:13:36;;;;;;;6.40;3.53;;;23.40;99.90;;;;;;5011581;28;20437;-69
2021/07/29 10:16:05;;;;;;;3.70;2.80;;;23.70;99.90;;;;;;5012383;28;20402;-71
2021/07/29 10:19:03;;;;;;;3.33;3.00;;;23.70;99.90;;;;;;5012244;28;20400;-72
2021/07/29 10:21:35;;;;;;;5.67;3.13;;;23.40;99.90;;;;;;5012130;28;20824;-72
2021/07/29 10:24:04;;;;;;;4.60;2.53;;;23.70;99.90;;;;;;5012271;28;20504;-70
2021/07/29 10:26:36;;;;;;;3.87;3.20;;;23.90;99.90;;;;;;5010385;28;20441;-70
2021/07/29 10:29:23;;;;;;;3.30;3.00;;;24.00;99.90;;;;;;5011785;28;20540;-70
2021/07/29 10:31:54;;;;;;;3.30;2.40;;;24.10;99.90;;;;;;5010310;28;20435;-70
2021/07/29 10:34:28;;;;;;;3.60;2.90;;;23.90;99.90;;;;;;5010402;28;20465;-71
2021/07/29 10:36:58;;;;;;;5.37;2.90;;;23.70;99.90;;;;;;5011327;28;20425;-71
2021/07/29 10:39:28;;;;;;;5.70;3.57;;;23.90;99.90;;;;;;5011812;28;20424;-70
2021/07/29 10:41:57;;;;;;;4.03;2.67;;;24.10;99.90;;;;;;5011697;28;20423;-70
2021/07/29 10:44:48;;;;;;;3.50;3.20;;;24.30;99.90;;;;;;5011783;28;20818;-69
2021/07/29 10:47:40;;;;;;;3.73;2.60;;;24.80;99.90;;;;;;5012023;28;20409;-71
2021/07/29 10:50:14;;;;;;;3.00;2.80;;;24.60;99.90;;;;;;5011995;28;20419;-72
2021/07/29 10:52:50;;;;;;;2.97;2.33;;;24.70;99.90;;;;;;5012275;28;20445;-72
2021/07/29 10:55:21;;;;;;;2.50;2.10;;;24.80;99.90;;;;;;5012232;28;20430;-69
2021/07/29 10:58:00;;;;;;;4.70;2.57;;;24.80;99.90;;;;;;5011643;28;20540;-70
2021/07/29 11:00:29;;;;;;;2.97;2.17;;;25.30;99.90;;;;;;5012791;28;20511;-69
2021/07/29 11:03:03;;;;;;;4.43;2.73;;;25.90;99.90;;;;;;5012134;28;20392;-70
2021/07/29 11:05:43;;;;;;;3.90;3.00;;;25.90;99.90;;;;;;5012171;28;20421;-69
2021/07/29 11:08:13;;;;;;;3.00;2.23;;;25.80;99.90;;;;;;5011801;28;20424;-70
2021/07/29 11:10:42;;;;;;;2.60;2.40;;;25.20;99.90;;;;;;5011358;28;20962;-71
2021/07/29 11:13:14;;;;;;;3.03;2.40;;;24.40;99.90;;;;;;5012187;28;20470;-70
2021/07/29 11:15:43;;;;;;;4.77;2.23;;;24.20;99.90;;;;;;5012387;28;20476;-71
2021/07/29 11:18:16;;;;;;;3.60;2.97;;;24.30;99.90;;;;;;5010843;28;20416;-70
2021/07/29 11:20:45;;;;;;;3.07;2.30;;;24.50;99.90;;;;;;5012403;28;20412;-70
2021/07/29 11:23:38;;;;;;;3.00;2.40;;;24.40;99.90;;;;;;5063735;22;20477;-85
2021/07/29 11:26:23;;;;;;;3.50;2.20;;;24.70;99.90;;;;;;5043901;28;20440;-82
2021/07/29 11:29:07;;;;;;;3.17;2.20;;;24.70;99.90;;;;;;5044093;28;20954;-85
2021/07/29 11:31:38;;;;;;;5.67;3.17;;;24.80;99.90;;;;;;5049000;28;20455;-84
2021/07/29 11:34:17;;;;;;;3.60;2.67;;;24.90;99.90;;;;;;5052768;28;20382;-85
2021/07/29 11:36:53;;;;;;;3.13;2.80;;;24.90;99.90;;;;;;5054466;28;20462;-83
2021/07/29 11:39:24;;;;;;;3.47;3.10;;;25.30;99.90;;;;;;5055858;28;20389;-83
2021/07/29 11:41:59;;;;;;;2.43;2.00;;;25.40;99.90;;;;;;5049354;28;20487;-82
2021/07/29 11:44:51;;;;;;;2.70;2.20;;;25.30;99.90;;;;;;5056700;28;20462;-82
2021/07/29 11:47:19;;;;;;;5.73;2.33;;;25.10;99.90;;;;;;5056920;28;20418;-83
2021/07/29 11:49:50;;;;;;;3.20;2.30;;;24.80;99.90;;;;;;5046994;28;20457;-83
2021/07/29 11:52:20;;;;;;;2.97;2.40;;;24.80;99.90;;;;;;5044450;28;20440;-84
2021/07/29 11:55:08;;;;;;;2.43;2.00;;;24.90;99.90;;;;;;5042907;28;20425;-85
2021/07/29 11:57:37;;;;;;;2.50;2.20;;;25.30;99.90;;;;;;5045463;28;20420;-85
2021/07/29 12:00:14;;;;;;;3.20;2.00;;;25.20;99.90;;;;;;5045295;28;20428;-84
2021/07/29 12:02:42;;;;;;;5.93;2.10;;;24.70;99.90;;;;;;5044575;28;20459;-85
2021/07/29 12:05:16;;;;;;;3.00;1.87;;;24.50;99.90;;;;;;5045157;28;20451;-85
2021/07/29 12:07:45;;;;;;;2.50;1.97;;;24.80;99.90;;;;;;5048795;28;20463;-82
2021/07/29 12:10:17;;;;;;;2.13;1.90;;;25.10;99.90;;;;;;5055156;28;20520;-82
2021/07/29 12:12:46;;;;;;;2.13;1.80;;;25.20;99.90;;;;;;5055574;28;20419;-82
2021/07/29 12:15:17;;;;;;;2.57;2.00;;;25.50;99.90;;;;;;5044749;28;20496;-84
2021/07/29 12:17:46;;;;;;;4.07;1.80;;;25.70;99.90;;;;;;5036739;28;20874;-83
2021/07/29 12:20:26;;;;;;;2.10;1.60;;;25.60;99.90;;;;;;5035508;28;20437;-82
2021/07/29 12:23:09;;;;;;;2.87;1.53;;;25.50;99.90;;;;;;5039294;28;20494;-81
2021/07/29 12:25:41;;;;;;;5.97;1.63;;;24.70;99.90;;;;;;5042763;28;20464;-85
2021/07/29 12:28:13;;;;;;;2.03;1.27;;;24.30;99.90;;;;;;5041500;28;20822;-84
2021/07/29 12:30:48;;;;;;;1.90;1.40;;;24.00;99.90;;;;;;5042038;28;20412;-85
2021/07/29 12:33:21;;;;;;;2.50;1.87;;;24.00;99.90;;;;;;5045223;28;20448;-83
2021/07/29 12:35:57;;;;;;;1.80;1.43;;;24.30;99.90;;;;;;5047169;28;20414;-83
2021/07/29 12:38:30;;;;;;;2.60;1.43;;;24.90;99.90;;;;;;5045742;28;20433;-85
2021/07/29 12:41:05;;;;;;;2.73;1.40;;;25.20;99.90;;;;;;5046427;28;20406;-83
2021/07/29 12:43:39;;;;;;;3.13;1.73;;;25.60;99.90;;;;;;5047574;28;20414;-84
2021/07/29 12:46:11;;;;;;;3.40;2.20;;;25.50;99.90;;;;;;5047869;28;20442;-84
2021/07/29 12:48:59;;;;;;;2.80;2.00;;;25.50;99.90;;;;;;5051206;28;20867;-84
2021/07/29 12:51:34;;;;;;;1.93;1.70;;;25.50;99.90;;;;;;5050181;28;20405;-85
2021/07/29 12:54:04;;;;;;;2.63;1.90;;;25.60;99.90;;;;;;5053178;28;20416;-83
2021/07/29 12:56:33;;;;;;;6.13;1.70;;;25.70;99.90;;;;;;5055145;28;20435;-84
2021/07/29 12:59:06;;;;;;;2.73;1.70;;;25.80;99.90;;;;;;5053968;28;20444;-84
2021/07/29 13:01:38;;;;;;;2.10;1.80;;;25.80;99.90;;;;;;5057070;28;20434;-85
2021/07/29 13:04:24;;;;;;;2.50;1.97;;;25.70;99.90;;;;;;5056797;28;20733;-82
2021/07/29 13:06:54;;;;;;;2.03;1.73;;;25.70;99.90;;;;;;5058295;28;20432;-83